EGTK/OXF METAR and TAF weather

Enter ICAO airport designator
Station Type Date Time Source
EGTK METAR 2020/07/10 15:20 UTC NOAA

EGTK 101520Z 30010KT 250V340 9999 SCT048 17/07 Q1020


Station Type Date Time Source
EGTK Decoded METAR 2020/07/10 15:20 UTC NOAA

Station name not available
Jul 10, 2020 - 11:20 AM EDT / 2020.07.10 1520 UTC
Wind: from the WNW (300 degrees) at 12 MPH (10 KT) (direction variable):0
Visibility: greater than 7 mile(s):0
Sky conditions: partly cloudy
Temperature: 62 F (17 C)
Dew Point: 44 F (7 C)
Relative Humidity: 51%
Pressure (altimeter): 30.12 in. Hg (1020 hPa)
ob: EGTK 101520Z 30010KT 250V340 9999 SCT048 17/07 Q1020
cycle: 15

Station Type Date Time Source
EGTK TAF UTC NOAA

Error!

Example: see airport list